createdAt,value
2023-02-03T00:01:46.550Z,1462.6354515050168
2023-02-03T00:08:08.057Z,1506.943143812709
2023-02-03T00:14:29.148Z,1416.3110367892978
2023-02-03T00:20:50.597Z,1339.0735785953177
2023-02-03T00:27:11.360Z,1237.5551839464883
2023-02-03T00:33:42.085Z,1252.5852842809365
2023-02-03T00:40:03.385Z,1192.9665551839464
2023-02-03T00:46:24.669Z,1199.839464882943
2023-02-03T00:56:51.862Z,1144.2140468227424
2023-02-03T01:03:13.073Z,1084.695652173913
2023-02-03T01:09:34.732Z,996.0802675585285
2023-02-03T01:15:56.282Z,918.2408026755853
2023-02-03T01:22:18.347Z,892.0434782608696
2023-02-03T01:34:54.951Z,806.1672240802676
2023-02-03T01:47:19.141Z,801.2207357859531
2023-02-03T01:53:40.026Z,912.7625418060201
2023-02-03T02:00:01.614Z,920.8294314381271
2023-02-03T02:07:29.833Z,1013.9197324414715
2023-02-03T02:16:33.657Z,1082.3177257525083
2023-02-03T02:23:28.795Z,1032.9832775919733
2023-02-03T02:29:50.058Z,1019.4080267558528
2023-02-03T02:36:12.203Z,989.7993311036789
2023-02-03T02:42:33.700Z,939.7826086956521
2023-02-03T02:48:55.349Z,935.2073578595317
2023-02-03T02:55:16.673Z,862.113712374582
2023-02-03T03:01:38.226Z,799.876254180602
2023-02-03T03:07:59.281Z,768.6722408026756
2023-02-03T03:18:53.518Z,652.7658862876254
2023-02-03T03:29:54.742Z,721.6655518394649
2023-02-03T03:42:21.780Z,744.8929765886288
2023-02-03T03:54:20.581Z,804.3010033444816
2023-02-03T04:06:32.567Z,771.6421404682275
2023-02-03T04:12:54.237Z,888.8729096989966
2023-02-03T04:19:17.026Z,846.7224080267558
2023-02-03T04:25:38.583Z,920.3678929765887
2023-02-03T04:32:59.948Z,950.438127090301
2023-02-03T04:44:06.445Z,961.8963210702341
2023-02-03T04:50:28.030Z,934.9264214046823
2023-02-03T04:56:59.948Z,910.6354515050167
2023-02-03T05:03:21.497Z,910.7859531772575
2023-02-03T05:11:51.758Z,866.1170568561873
2023-02-03T05:23:38.848Z,787.9665551839465
2023-02-03T05:29:59.458Z,845.1672240802676
2023-02-03T05:36:20.770Z,806.1070234113712
2023-02-03T05:42:41.522Z,759.5418060200669
2023-02-03T05:53:22.092Z,834.2709030100334
2023-02-03T05:59:42.680Z,751.7056856187291
2023-02-03T06:06:04.222Z,787.0535117056857
2023-02-03T06:12:26.463Z,784.7558528428094
2023-02-03T06:18:49.313Z,783.2408026755853
2023-02-03T06:25:27.679Z,804.9732441471572
2023-02-03T06:31:49.772Z,844.7658862876254
2023-02-03T06:43:18.827Z,796.2842809364548
2023-02-03T06:53:38.533Z,786.6421404682275
2023-02-03T07:00:01.609Z,745.4448160535117
2023-02-03T07:09:58.548Z,684.571906354515
2023-02-03T07:16:23.570Z,637.5351170568562
2023-02-03T07:25:08.328Z,680.4080267558528
2023-02-03T07:31:31.434Z,619.0033444816054
2023-02-03T07:42:28.716Z,655.5752508361204
2023-02-03T08:02:05.700Z,625.133779264214
2023-02-03T08:08:27.823Z,640.4749163879599
2023-02-03T08:20:37.976Z,681.6321070234113
2023-02-03T08:26:59.481Z,564.0903010033445
2023-02-03T08:33:21.505Z,570.7826086956521
2023-02-03T08:39:44.894Z,565.6053511705686
2023-02-03T08:46:09.735Z,532.0936454849499
2023-02-03T08:52:34.242Z,514.9163879598663
2023-02-03T08:58:57.597Z,514.7257525083612
2023-02-03T09:07:32.938Z,533.9498327759197
2023-02-03T09:17:50.164Z,516.7123745819398
2023-02-03T09:24:14.504Z,391.69565217391306
2023-02-03T09:30:39.155Z,329.2173913043478
2023-02-03T09:37:02.869Z,280.96655518394647
2023-02-03T09:43:27.146Z,291.2006688963211
2023-02-03T09:49:51.551Z,377.10702341137124
2023-02-03T09:56:16.350Z,385.11371237458195
2023-02-03T10:05:39.148Z,417.33110367892976
2023-02-03T10:12:03.628Z,448.46488294314383
2023-02-03T10:18:27.795Z,454.15384615384613
2023-02-03T10:24:52.142Z,560.3177257525084
2023-02-03T10:31:16.806Z,616.314381270903
2023-02-03T10:37:40.951Z,563.7993311036789
2023-02-03T10:46:43.442Z,740.3779264214047
2023-02-03T10:58:04.278Z,799.0434782608696
2023-02-03T11:04:28.369Z,675.010033444816
2023-02-03T11:10:51.821Z,691.9364548494983
2023-02-03T11:17:32.432Z,592.9565217391304
2023-02-03T11:33:47.658Z,589.8260869565217
2023-02-03T11:40:12.369Z,497.29765886287623
2023-02-03T11:46:37.094Z,599.8494983277592
2023-02-03T11:53:00.673Z,431.67892976588627
2023-02-03T12:00:13.117Z,506.83946488294316
2023-02-03T12:06:37.048Z,495.3411371237458
2023-02-03T12:13:01.120Z,431.72909698996654
2023-02-03T12:19:25.703Z,390.1505016722408
2023-02-03T12:25:49.683Z,413.1471571906354
2023-02-03T12:32:14.397Z,406.53511705685617
2023-02-03T12:41:09.414Z,427.24414715719064
2023-02-03T12:49:22.967Z,380.38795986622074
2023-02-03T12:55:47.143Z,387.18060200668896
2023-02-03T13:03:10.904Z,350.12709030100336
2023-02-03T13:11:10.088Z,399.3511705685619
2023-02-03T13:23:13.401Z,328.7859531772575
2023-02-03T13:29:37.630Z,367.6254180602007
2023-02-03T13:37:17.853Z,547.0936454849499
2023-02-03T13:43:40.991Z,473.2675585284281
2023-02-03T13:50:04.695Z,551.2274247491639
2023-02-03T13:56:29.331Z,720.8729096989966
2023-02-03T14:02:53.321Z,677.1471571906354
2023-02-03T14:09:17.630Z,464.8595317725752
2023-02-03T14:17:41.115Z,361.89632107023414
2023-02-03T14:25:11.946Z,420.2608695652174
2023-02-03T14:31:35.218Z,385.18394648829434
2023-02-03T14:40:52.471Z,477.0702341137124
2023-02-03T14:47:15.692Z,474.5217391304348
2023-02-03T14:53:39.856Z,624.6923076923077
2023-02-03T15:00:03.640Z,787.7759197324415
2023-02-03T15:06:28.000Z,801.3913043478261
2023-02-03T15:18:10.164Z,461.01672240802674
2023-02-03T15:24:33.263Z,420.571906354515
2023-02-03T15:30:57.313Z,400.0836120401338
2023-02-03T15:37:20.681Z,391.2341137123746
2023-02-03T15:43:43.789Z,396.7324414715719
2023-02-03T15:50:07.465Z,417.9130434782609
2023-02-03T15:56:31.353Z,414.89297658862876
2023-02-03T16:02:53.915Z,521.0167224080268
2023-02-03T16:09:14.560Z,545.6889632107024
2023-02-03T16:15:35.850Z,757.7157190635452
2023-02-03T16:26:42.025Z,864.9130434782609
2023-02-03T16:33:02.519Z,819.0802675585285
2023-02-03T16:43:26.881Z,840.7023411371238
2023-02-03T16:49:47.867Z,831.2408026755853
2023-02-03T16:56:08.545Z,804.581939799331
2023-02-03T17:10:05.917Z,588.5117056856187
2023-02-03T17:16:27.332Z,612.6020066889632
2023-02-03T17:22:48.756Z,697.4749163879599
2023-02-03T17:33:39.000Z,740.61872909699
2023-02-03T17:59:37.435Z,670.876254180602
2023-02-03T18:05:59.180Z,671.1571906354515
2023-02-03T18:12:20.100Z,694.8060200668897
2023-02-03T18:19:55.820Z,1191.3110367892978
2023-02-03T18:26:17.218Z,1171.695652173913
2023-02-03T18:37:12.769Z,1077.5016722408027
2023-02-03T18:43:34.534Z,1045.7859531772576
2023-02-03T18:49:55.831Z,1080.71237458194
2023-02-03T18:56:17.573Z,958.1538461538462
2023-02-03T19:02:42.247Z,926.8896321070234
2023-02-03T19:09:05.481Z,884.2675585284281
2023-02-03T19:15:28.715Z,962.8394648829432
2023-02-03T19:21:51.241Z,1072.8060200668897
2023-02-03T19:33:50.816Z,1003.4247491638796
2023-02-03T19:40:16.749Z,1088.1772575250836
2023-02-03T19:46:42.752Z,988.3444816053511
2023-02-03T19:53:05.858Z,798.2508361204013
2023-02-03T19:59:29.786Z,843.8929765886288
2023-02-03T20:05:55.375Z,864.0
2023-02-03T20:12:19.007Z,867.4916387959867
2023-02-03T20:18:40.566Z,816.7625418060201
2023-02-03T20:25:03.327Z,827.5886287625418
2023-02-03T20:31:25.841Z,949.113712374582
2023-02-03T20:37:49.124Z,767.5083612040133
2023-02-03T20:45:20.949Z,966.6321070234113
2023-02-03T20:51:44.888Z,820.9665551839465
2023-02-03T20:58:06.456Z,691.9464882943143
2023-02-03T21:04:28.243Z,709.6555183946489
2023-02-03T21:10:49.848Z,644.8896321070234
2023-02-03T21:17:12.820Z,672.2307692307693
2023-02-03T21:28:44.463Z,592.9665551839465
2023-02-03T21:41:04.849Z,763.2642140468228
2023-02-03T21:47:28.145Z,1031.3076923076924
2023-02-03T21:53:54.573Z,874.3846153846154
2023-02-03T22:00:22.935Z,730.0535117056857
2023-02-03T22:09:31.794Z,669.1003344481605
2023-02-03T22:15:55.464Z,938.6889632107024
2023-02-03T22:22:19.614Z,715.3244147157191
2023-02-03T22:28:45.479Z,649.0434782608696
2023-02-03T22:35:12.120Z,568.9464882943143
2023-02-03T22:47:31.339Z,486.8528428093646
2023-02-03T22:53:58.121Z,542.7993311036789
2023-02-03T23:00:27.405Z,468.9732441471572
2023-02-03T23:06:52.231Z,391.7658862876254
2023-02-03T23:13:18.086Z,410.3578595317726
2023-02-03T23:19:42.946Z,331.6655518394649
2023-02-03T23:26:04.193Z,366.8026755852843
2023-02-03T23:32:25.935Z,334.505016722408
2023-02-03T23:38:47.715Z,284.32775919732444
2023-02-03T23:45:09.149Z,309.9130434782609
2023-02-03T23:52:23.556Z,276.10033444816054
